sensor_id;sensor_type;location;lat;lon;timestamp;P1;durP1;ratioP1;P2;durP2;ratioP2
73823;SDS011;62154;54.914;73.444;2022-12-18T00:01:27;56.70;;;16.50;;
73823;SDS011;62154;54.914;73.444;2022-12-18T00:03:57;46.95;;;15.18;;
73823;SDS011;62154;54.914;73.444;2022-12-18T00:06:25;56.70;;;16.58;;
73823;SDS011;62154;54.914;73.444;2022-12-18T00:08:59;49.47;;;16.67;;
73823;SDS011;62154;54.914;73.444;2022-12-18T00:11:28;61.60;;;19.50;;
73823;SDS011;62154;54.914;73.444;2022-12-18T00:13:59;74.85;;;24.35;;
73823;SDS011;62154;54.914;73.444;2022-12-18T00:16:27;97.10;;;30.17;;
73823;SDS011;62154;54.914;73.444;2022-12-18T00:18:57;84.15;;;30.05;;
73823;SDS011;62154;54.914;73.444;2022-12-18T00:21:26;96.18;;;29.98;;
73823;SDS011;62154;54.914;73.444;2022-12-18T00:24:04;92.22;;;30.73;;
73823;SDS011;62154;54.914;73.444;2022-12-18T00:26:32;89.25;;;27.50;;
73823;SDS011;62154;54.914;73.444;2022-12-18T00:29:06;96.93;;;28.52;;
73823;SDS011;62154;54.914;73.444;2022-12-18T00:31:37;92.00;;;30.15;;
73823;SDS011;62154;54.914;73.444;2022-12-18T00:34:11;78.18;;;24.23;;
73823;SDS011;62154;54.914;73.444;2022-12-18T00:36:40;89.95;;;28.95;;
73823;SDS011;62154;54.914;73.444;2022-12-18T00:39:18;122.20;;;36.40;;
73823;SDS011;62154;54.914;73.444;2022-12-18T00:41:46;136.23;;;39.80;;
73823;SDS011;62154;54.914;73.444;2022-12-18T00:44:31;102.57;;;35.25;;
73823;SDS011;62154;54.914;73.444;2022-12-18T00:46:59;91.57;;;31.70;;
73823;SDS011;62154;54.914;73.444;2022-12-18T00:49:26;90.40;;;32.03;;
73823;SDS011;62154;54.914;73.444;2022-12-18T00:51:55;73.22;;;25.25;;
73823;SDS011;62154;54.914;73.444;2022-12-18T00:54:22;85.55;;;29.52;;
73823;SDS011;62154;54.914;73.444;2022-12-18T00:56:49;83.30;;;28.40;;
73823;SDS011;62154;54.914;73.444;2022-12-18T00:59:17;77.60;;;26.85;;
73823;SDS011;62154;54.914;73.444;2022-12-18T01:01:45;70.28;;;24.15;;
73823;SDS011;62154;54.914;73.444;2022-12-18T01:04:12;62.72;;;23.20;;
73823;SDS011;62154;54.914;73.444;2022-12-18T01:06:40;62.20;;;23.70;;
73823;SDS011;62154;54.914;73.444;2022-12-18T01:09:07;70.43;;;25.80;;
73823;SDS011;62154;54.914;73.444;2022-12-18T01:11:36;74.95;;;24.77;;
73823;SDS011;62154;54.914;73.444;2022-12-18T01:14:04;74.55;;;26.35;;
73823;SDS011;62154;54.914;73.444;2022-12-18T01:16:31;72.40;;;24.33;;
73823;SDS011;62154;54.914;73.444;2022-12-18T01:18:58;79.38;;;25.45;;
73823;SDS011;62154;54.914;73.444;2022-12-18T01:21:26;72.43;;;25.55;;
73823;SDS011;62154;54.914;73.444;2022-12-18T01:23:55;69.50;;;26.05;;
73823;SDS011;62154;54.914;73.444;2022-12-18T01:26:24;83.88;;;28.75;;
73823;SDS011;62154;54.914;73.444;2022-12-18T01:28:56;69.63;;;25.20;;
73823;SDS011;62154;54.914;73.444;2022-12-18T01:31:27;72.35;;;24.65;;
73823;SDS011;62154;54.914;73.444;2022-12-18T01:33:56;115.43;;;35.38;;
73823;SDS011;62154;54.914;73.444;2022-12-18T01:36:27;84.43;;;26.13;;
73823;SDS011;62154;54.914;73.444;2022-12-18T01:39:09;83.00;;;27.33;;
73823;SDS011;62154;54.914;73.444;2022-12-18T01:41:46;176.18;;;51.85;;
73823;SDS011;62154;54.914;73.444;2022-12-18T01:50:21;77.85;;;30.30;;
73823;SDS011;62154;54.914;73.444;2022-12-18T01:53:21;86.47;;;31.63;;
73823;SDS011;62154;54.914;73.444;2022-12-18T01:55:51;119.78;;;41.05;;
73823;SDS011;62154;54.914;73.444;2022-12-18T02:01:30;188.00;;;58.17;;
73823;SDS011;62154;54.914;73.444;2022-12-18T02:07:03;132.73;;;42.88;;
73823;SDS011;62154;54.914;73.444;2022-12-18T02:09:36;82.38;;;29.67;;
73823;SDS011;62154;54.914;73.444;2022-12-18T02:12:21;92.07;;;30.77;;
73823;SDS011;62154;54.914;73.444;2022-12-18T02:18:08;70.65;;;26.35;;
73823;SDS011;62154;54.914;73.444;2022-12-18T02:20:44;67.88;;;25.52;;
73823;SDS011;62154;54.914;73.444;2022-12-18T02:32:00;76.47;;;26.95;;
73823;SDS011;62154;54.914;73.444;2022-12-18T02:34:33;97.53;;;30.70;;
73823;SDS011;62154;54.914;73.444;2022-12-18T02:37:07;95.18;;;33.67;;
73823;SDS011;62154;54.914;73.444;2022-12-18T02:39:40;109.80;;;39.35;;
73823;SDS011;62154;54.914;73.444;2022-12-18T02:42:22;142.18;;;48.13;;
73823;SDS011;62154;54.914;73.444;2022-12-18T02:44:51;166.55;;;58.13;;
73823;SDS011;62154;54.914;73.444;2022-12-18T02:47:24;191.20;;;71.95;;
73823;SDS011;62154;54.914;73.444;2022-12-18T02:55:28;135.20;;;46.67;;
73823;SDS011;62154;54.914;73.444;2022-12-18T02:58:14;156.32;;;53.30;;
73823;SDS011;62154;54.914;73.444;2022-12-18T03:00:58;186.18;;;60.00;;
73823;SDS011;62154;54.914;73.444;2022-12-18T03:03:39;238.80;;;66.50;;
73823;SDS011;62154;54.914;73.444;2022-12-18T03:06:12;282.80;;;85.75;;
73823;SDS011;62154;54.914;73.444;2022-12-18T03:08:49;259.35;;;82.10;;
73823;SDS011;62154;54.914;73.444;2022-12-18T03:11:21;268.23;;;83.72;;
73823;SDS011;62154;54.914;73.444;2022-12-18T03:14:19;267.20;;;87.35;;
73823;SDS011;62154;54.914;73.444;2022-12-18T03:16:57;263.92;;;87.13;;
73823;SDS011;62154;54.914;73.444;2022-12-18T03:19:29;239.75;;;85.75;;
73823;SDS011;62154;54.914;73.444;2022-12-18T03:22:01;213.70;;;75.80;;
73823;SDS011;62154;54.914;73.444;2022-12-18T03:24:40;246.73;;;82.43;;
73823;SDS011;62154;54.914;73.444;2022-12-18T03:27:10;215.48;;;76.72;;
73823;SDS011;62154;54.914;73.444;2022-12-18T03:29:42;194.32;;;64.43;;
73823;SDS011;62154;54.914;73.444;2022-12-18T03:32:21;216.05;;;64.10;;
73823;SDS011;62154;54.914;73.444;2022-12-18T03:35:04;160.00;;;52.80;;
73823;SDS011;62154;54.914;73.444;2022-12-18T03:37:36;148.45;;;46.22;;
73823;SDS011;62154;54.914;73.444;2022-12-18T03:40:04;124.25;;;42.05;;
73823;SDS011;62154;54.914;73.444;2022-12-18T03:45:31;124.28;;;40.70;;
73823;SDS011;62154;54.914;73.444;2022-12-18T03:48:06;121.22;;;39.45;;
73823;SDS011;62154;54.914;73.444;2022-12-18T03:51:31;97.40;;;37.25;;
73823;SDS011;62154;54.914;73.444;2022-12-18T03:54:01;153.40;;;59.45;;
73823;SDS011;62154;54.914;73.444;2022-12-18T03:56:38;136.13;;;53.10;;
73823;SDS011;62154;54.914;73.444;2022-12-18T03:59:20;127.50;;;46.95;;
73823;SDS011;62154;54.914;73.444;2022-12-18T04:01:53;119.13;;;46.22;;
73823;SDS011;62154;54.914;73.444;2022-12-18T04:04:26;89.95;;;37.75;;
73823;SDS011;62154;54.914;73.444;2022-12-18T04:06:57;97.75;;;33.42;;
73823;SDS011;62154;54.914;73.444;2022-12-18T04:09:26;98.03;;;34.53;;
73823;SDS011;62154;54.914;73.444;2022-12-18T04:11:54;82.32;;;30.75;;
73823;SDS011;62154;54.914;73.444;2022-12-18T04:14:21;80.65;;;30.38;;
73823;SDS011;62154;54.914;73.444;2022-12-18T04:16:52;85.32;;;34.83;;
73823;SDS011;62154;54.914;73.444;2022-12-18T04:19:25;89.10;;;34.47;;
73823;SDS011;62154;54.914;73.444;2022-12-18T04:21:53;94.10;;;37.75;;
73823;SDS011;62154;54.914;73.444;2022-12-18T04:24:22;116.43;;;49.08;;
73823;SDS011;62154;54.914;73.444;2022-12-18T04:27:24;129.45;;;47.75;;
73823;SDS011;62154;54.914;73.444;2022-12-18T04:29:52;93.30;;;39.17;;
73823;SDS011;62154;54.914;73.444;2022-12-18T04:32:20;102.40;;;38.20;;
73823;SDS011;62154;54.914;73.444;2022-12-18T04:34:47;144.40;;;37.00;;
73823;SDS011;62154;54.914;73.444;2022-12-18T04:37:21;113.82;;;38.03;;
73823;SDS011;62154;54.914;73.444;2022-12-18T04:39:49;138.32;;;43.78;;
73823;SDS011;62154;54.914;73.444;2022-12-18T04:42:25;145.57;;;46.20;;
73823;SDS011;62154;54.914;73.444;2022-12-18T04:44:56;170.20;;;55.67;;
73823;SDS011;62154;54.914;73.444;2022-12-18T04:47:23;149.40;;;52.53;;
73823;SDS011;62154;54.914;73.444;2022-12-18T04:49:50;261.17;;;87.68;;
73823;SDS011;62154;54.914;73.444;2022-12-18T04:52:23;164.05;;;57.28;;
73823;SDS011;62154;54.914;73.444;2022-12-18T04:54:50;189.70;;;65.05;;
73823;SDS011;62154;54.914;73.444;2022-12-18T04:57:18;111.25;;;36.70;;
73823;SDS011;62154;54.914;73.444;2022-12-18T04:59:45;112.10;;;40.80;;
73823;SDS011;62154;54.914;73.444;2022-12-18T05:02:13;141.45;;;49.15;;
73823;SDS011;62154;54.914;73.444;2022-12-18T05:04:40;162.73;;;55.10;;
73823;SDS011;62154;54.914;73.444;2022-12-18T05:07:12;138.88;;;49.38;;
73823;SDS011;62154;54.914;73.444;2022-12-18T05:09:40;130.15;;;44.25;;
73823;SDS011;62154;54.914;73.444;2022-12-18T05:12:07;112.28;;;41.67;;
73823;SDS011;62154;54.914;73.444;2022-12-18T05:14:39;269.27;;;87.70;;
73823;SDS011;62154;54.914;73.444;2022-12-18T05:17:07;126.88;;;47.25;;
73823;SDS011;62154;54.914;73.444;2022-12-18T05:19:34;106.43;;;38.13;;
73823;SDS011;62154;54.914;73.444;2022-12-18T05:22:04;86.60;;;34.10;;
73823;SDS011;62154;54.914;73.444;2022-12-18T05:24:41;83.70;;;32.28;;
73823;SDS011;62154;54.914;73.444;2022-12-18T05:27:09;85.68;;;33.97;;
73823;SDS011;62154;54.914;73.444;2022-12-18T05:29:36;93.38;;;37.30;;
73823;SDS011;62154;54.914;73.444;2022-12-18T05:32:13;115.70;;;44.80;;
73823;SDS011;62154;54.914;73.444;2022-12-18T05:34:41;197.48;;;76.40;;
73823;SDS011;62154;54.914;73.444;2022-12-18T05:37:18;145.10;;;56.17;;
73823;SDS011;62154;54.914;73.444;2022-12-18T05:39:45;139.75;;;45.67;;
73823;SDS011;62154;54.914;73.444;2022-12-18T05:42:12;171.68;;;55.38;;
73823;SDS011;62154;54.914;73.444;2022-12-18T05:44:40;91.35;;;32.28;;
73823;SDS011;62154;54.914;73.444;2022-12-18T05:47:07;109.75;;;42.58;;
73823;SDS011;62154;54.914;73.444;2022-12-18T05:49:44;121.07;;;39.85;;
73823;SDS011;62154;54.914;73.444;2022-12-18T05:52:16;112.00;;;37.67;;
73823;SDS011;62154;54.914;73.444;2022-12-18T05:54:44;107.50;;;39.10;;
73823;SDS011;62154;54.914;73.444;2022-12-18T05:57:12;79.97;;;31.92;;
73823;SDS011;62154;54.914;73.444;2022-12-18T05:59:39;77.30;;;29.17;;
73823;SDS011;62154;54.914;73.444;2022-12-18T06:02:07;90.45;;;36.15;;
73823;SDS011;62154;54.914;73.444;2022-12-18T06:04:34;85.78;;;30.60;;
73823;SDS011;62154;54.914;73.444;2022-12-18T06:07:01;92.43;;;31.67;;
73823;SDS011;62154;54.914;73.444;2022-12-18T06:09:29;105.85;;;35.70;;
73823;SDS011;62154;54.914;73.444;2022-12-18T06:11:59;104.50;;;35.53;;
73823;SDS011;62154;54.914;73.444;2022-12-18T06:14:26;77.60;;;28.92;;
73823;SDS011;62154;54.914;73.444;2022-12-18T06:16:54;89.93;;;32.47;;
73823;SDS011;62154;54.914;73.444;2022-12-18T06:19:21;99.47;;;30.48;;
73823;SDS011;62154;54.914;73.444;2022-12-18T06:21:52;122.63;;;47.83;;
73823;SDS011;62154;54.914;73.444;2022-12-18T06:24:29;71.35;;;27.75;;
73823;SDS011;62154;54.914;73.444;2022-12-18T06:26:56;95.72;;;37.30;;
73823;SDS011;62154;54.914;73.444;2022-12-18T06:29:24;121.63;;;48.75;;
73823;SDS011;62154;54.914;73.444;2022-12-18T06:31:56;160.02;;;63.47;;
73823;SDS011;62154;54.914;73.444;2022-12-18T06:34:24;110.32;;;42.08;;
73823;SDS011;62154;54.914;73.444;2022-12-18T06:36:53;146.57;;;48.63;;
73823;SDS011;62154;54.914;73.444;2022-12-18T06:39:29;74.82;;;28.52;;
73823;SDS011;62154;54.914;73.444;2022-12-18T06:41:56;89.20;;;34.50;;
73823;SDS011;62154;54.914;73.444;2022-12-18T06:44:24;121.18;;;36.88;;
73823;SDS011;62154;54.914;73.444;2022-12-18T06:46:51;122.75;;;36.35;;
73823;SDS011;62154;54.914;73.444;2022-12-18T06:49:18;82.00;;;25.50;;
73823;SDS011;62154;54.914;73.444;2022-12-18T06:51:45;86.72;;;27.38;;
73823;SDS011;62154;54.914;73.444;2022-12-18T06:54:13;100.93;;;32.40;;
73823;SDS011;62154;54.914;73.444;2022-12-18T06:56:40;98.45;;;31.20;;
73823;SDS011;62154;54.914;73.444;2022-12-18T06:59:17;96.78;;;34.33;;
73823;SDS011;62154;54.914;73.444;2022-12-18T07:01:45;95.30;;;30.58;;
73823;SDS011;62154;54.914;73.444;2022-12-18T07:04:12;207.32;;;65.30;;
73823;SDS011;62154;54.914;73.444;2022-12-18T07:06:40;94.50;;;30.75;;
73823;SDS011;62154;54.914;73.444;2022-12-18T07:09:07;97.05;;;33.63;;
73823;SDS011;62154;54.914;73.444;2022-12-18T07:11:34;87.55;;;29.83;;
73823;SDS011;62154;54.914;73.444;2022-12-18T07:14:05;76.50;;;29.23;;
73823;SDS011;62154;54.914;73.444;2022-12-18T07:16:32;76.72;;;27.02;;
73823;SDS011;62154;54.914;73.444;2022-12-18T07:19:00;93.18;;;32.70;;
73823;SDS011;62154;54.914;73.444;2022-12-18T07:21:27;75.70;;;26.10;;
73823;SDS011;62154;54.914;73.444;2022-12-18T07:23:54;67.82;;;24.20;;
73823;SDS011;62154;54.914;73.444;2022-12-18T07:26:24;90.70;;;31.67;;
73823;SDS011;62154;54.914;73.444;2022-12-18T07:28:54;70.32;;;24.15;;
73823;SDS011;62154;54.914;73.444;2022-12-18T07:31:24;69.35;;;26.48;;
73823;SDS011;62154;54.914;73.444;2022-12-18T07:33:52;90.03;;;29.95;;
73823;SDS011;62154;54.914;73.444;2022-12-18T07:36:19;66.20;;;22.15;;
73823;SDS011;62154;54.914;73.444;2022-12-18T07:38:47;92.70;;;29.23;;
73823;SDS011;62154;54.914;73.444;2022-12-18T07:41:15;89.68;;;31.30;;
73823;SDS011;62154;54.914;73.444;2022-12-18T07:43:44;91.28;;;31.95;;
73823;SDS011;62154;54.914;73.444;2022-12-18T07:46:12;89.50;;;30.63;;
73823;SDS011;62154;54.914;73.444;2022-12-18T07:48:50;130.82;;;41.75;;
73823;SDS011;62154;54.914;73.444;2022-12-18T07:51:18;99.50;;;34.40;;
73823;SDS011;62154;54.914;73.444;2022-12-18T07:53:45;74.32;;;24.92;;
73823;SDS011;62154;54.914;73.444;2022-12-18T07:56:13;64.88;;;21.52;;
73823;SDS011;62154;54.914;73.444;2022-12-18T07:58:41;66.85;;;21.73;;
73823;SDS011;62154;54.914;73.444;2022-12-18T08:01:11;64.22;;;22.80;;
73823;SDS011;62154;54.914;73.444;2022-12-18T08:03:48;69.22;;;24.98;;
73823;SDS011;62154;54.914;73.444;2022-12-18T08:06:24;61.03;;;23.63;;
73823;SDS011;62154;54.914;73.444;2022-12-18T08:08:58;56.17;;;20.15;;
73823;SDS011;62154;54.914;73.444;2022-12-18T08:11:31;57.17;;;21.08;;
73823;SDS011;62154;54.914;73.444;2022-12-18T08:13:58;60.17;;;20.90;;
73823;SDS011;62154;54.914;73.444;2022-12-18T08:16:36;61.83;;;22.17;;
73823;SDS011;62154;54.914;73.444;2022-12-18T08:19:11;69.65;;;25.35;;
73823;SDS011;62154;54.914;73.444;2022-12-18T08:21:44;65.38;;;25.27;;
73823;SDS011;62154;54.914;73.444;2022-12-18T08:24:11;61.08;;;23.25;;
73823;SDS011;62154;54.914;73.444;2022-12-18T08:26:43;91.85;;;33.05;;
73823;SDS011;62154;54.914;73.444;2022-12-18T08:29:20;69.22;;;28.95;;
73823;SDS011;62154;54.914;73.444;2022-12-18T08:31:48;66.18;;;22.90;;
73823;SDS011;62154;54.914;73.444;2022-12-18T08:34:15;75.85;;;25.92;;
73823;SDS011;62154;54.914;73.444;2022-12-18T08:36:42;61.75;;;21.27;;
73823;SDS011;62154;54.914;73.444;2022-12-18T08:39:18;73.55;;;25.20;;
73823;SDS011;62154;54.914;73.444;2022-12-18T08:41:48;66.53;;;24.10;;
73823;SDS011;62154;54.914;73.444;2022-12-18T08:47:15;56.05;;;19.63;;
73823;SDS011;62154;54.914;73.444;2022-12-18T08:49:43;57.30;;;20.25;;
73823;SDS011;62154;54.914;73.444;2022-12-18T08:52:16;53.08;;;20.25;;
73823;SDS011;62154;54.914;73.444;2022-12-18T08:54:55;44.50;;;18.50;;
73823;SDS011;62154;54.914;73.444;2022-12-18T08:57:22;61.35;;;22.50;;
73823;SDS011;62154;54.914;73.444;2022-12-18T08:59:49;63.55;;;23.50;;
73823;SDS011;62154;54.914;73.444;2022-12-18T09:02:17;65.22;;;25.30;;
73823;SDS011;62154;54.914;73.444;2022-12-18T09:04:53;104.93;;;34.30;;
73823;SDS011;62154;54.914;73.444;2022-12-18T09:07:21;117.35;;;37.83;;
73823;SDS011;62154;54.914;73.444;2022-12-18T09:09:54;79.70;;;31.83;;
73823;SDS011;62154;54.914;73.444;2022-12-18T09:12:28;69.45;;;27.25;;
73823;SDS011;62154;54.914;73.444;2022-12-18T09:14:55;60.20;;;26.20;;
73823;SDS011;62154;54.914;73.444;2022-12-18T09:17:28;52.70;;;19.33;;
73823;SDS011;62154;54.914;73.444;2022-12-18T09:20:00;60.72;;;26.65;;
73823;SDS011;62154;54.914;73.444;2022-12-18T09:22:29;58.70;;;22.33;;
73823;SDS011;62154;54.914;73.444;2022-12-18T09:25:02;59.63;;;20.60;;
73823;SDS011;62154;54.914;73.444;2022-12-18T09:27:30;50.58;;;19.40;;
73823;SDS011;62154;54.914;73.444;2022-12-18T09:29:58;58.25;;;23.23;;
73823;SDS011;62154;54.914;73.444;2022-12-18T09:32:25;66.28;;;26.30;;
73823;SDS011;62154;54.914;73.444;2022-12-18T09:35:02;54.15;;;22.63;;
73823;SDS011;62154;54.914;73.444;2022-12-18T09:37:35;56.15;;;20.27;;
73823;SDS011;62154;54.914;73.444;2022-12-18T09:40:03;50.70;;;18.98;;
73823;SDS011;62154;54.914;73.444;2022-12-18T09:42:46;52.08;;;20.38;;
73823;SDS011;62154;54.914;73.444;2022-12-18T09:45:18;100.30;;;34.13;;
73823;SDS011;62154;54.914;73.444;2022-12-18T09:47:56;109.32;;;36.08;;
73823;SDS011;62154;54.914;73.444;2022-12-18T09:50:36;172.32;;;50.83;;
73823;SDS011;62154;54.914;73.444;2022-12-18T09:53:14;166.75;;;49.30;;
73823;SDS011;62154;54.914;73.444;2022-12-18T09:55:51;111.78;;;36.30;;
73823;SDS011;62154;54.914;73.444;2022-12-18T10:01:02;66.80;;;22.17;;
73823;SDS011;62154;54.914;73.444;2022-12-18T10:03:29;103.60;;;38.72;;
73823;SDS011;62154;54.914;73.444;2022-12-18T10:06:13;231.43;;;60.10;;
73823;SDS011;62154;54.914;73.444;2022-12-18T10:11:53;145.68;;;46.35;;
73823;SDS011;62154;54.914;73.444;2022-12-18T10:14:57;82.18;;;26.88;;
73823;SDS011;62154;54.914;73.444;2022-12-18T10:20:24;68.30;;;28.20;;
73823;SDS011;62154;54.914;73.444;2022-12-18T10:23:16;55.40;;;22.13;;
73823;SDS011;62154;54.914;73.444;2022-12-18T10:28:32;54.85;;;21.80;;
73823;SDS011;62154;54.914;73.444;2022-12-18T10:31:19;46.60;;;20.48;;
73823;SDS011;62154;54.914;73.444;2022-12-18T10:33:53;59.53;;;21.52;;
73823;SDS011;62154;54.914;73.444;2022-12-18T10:36:23;70.60;;;25.40;;
73823;SDS011;62154;54.914;73.444;2022-12-18T10:39:17;99.50;;;37.67;;
73823;SDS011;62154;54.914;73.444;2022-12-18T10:41:45;79.20;;;28.98;;
73823;SDS011;62154;54.914;73.444;2022-12-18T10:44:22;50.53;;;18.98;;
73823;SDS011;62154;54.914;73.444;2022-12-18T10:47:02;67.63;;;24.20;;
73823;SDS011;62154;54.914;73.444;2022-12-18T10:49:34;61.67;;;20.98;;
73823;SDS011;62154;54.914;73.444;2022-12-18T10:52:20;48.20;;;19.00;;
73823;SDS011;62154;54.914;73.444;2022-12-18T10:54:51;53.28;;;18.38;;
73823;SDS011;62154;54.914;73.444;2022-12-18T10:57:30;84.85;;;32.08;;
73823;SDS011;62154;54.914;73.444;2022-12-18T11:00:28;121.05;;;47.35;;
73823;SDS011;62154;54.914;73.444;2022-12-18T11:03:02;83.40;;;33.20;;
73823;SDS011;62154;54.914;73.444;2022-12-18T11:05:31;77.32;;;30.55;;
73823;SDS011;62154;54.914;73.444;2022-12-18T11:08:01;59.15;;;23.05;;
73823;SDS011;62154;54.914;73.444;2022-12-18T11:10:36;76.88;;;29.98;;
73823;SDS011;62154;54.914;73.444;2022-12-18T11:13:15;50.30;;;19.23;;
73823;SDS011;62154;54.914;73.444;2022-12-18T11:15:55;40.95;;;16.77;;
73823;SDS011;62154;54.914;73.444;2022-12-18T11:20:52;48.42;;;17.73;;
73823;SDS011;62154;54.914;73.444;2022-12-18T11:23:27;50.17;;;20.70;;
73823;SDS011;62154;54.914;73.444;2022-12-18T11:26:05;44.97;;;17.88;;
73823;SDS011;62154;54.914;73.444;2022-12-18T11:28:37;47.28;;;18.90;;
73823;SDS011;62154;54.914;73.444;2022-12-18T11:36:44;93.85;;;35.25;;
73823;SDS011;62154;54.914;73.444;2022-12-18T11:44:42;71.32;;;27.13;;
73823;SDS011;62154;54.914;73.444;2022-12-18T11:52:59;92.07;;;33.05;;
73823;SDS011;62154;54.914;73.444;2022-12-18T11:55:47;89.85;;;35.72;;
73823;SDS011;62154;54.914;73.444;2022-12-18T11:58:35;76.13;;;29.77;;
73823;SDS011;62154;54.914;73.444;2022-12-18T12:04:15;81.68;;;35.25;;
73823;SDS011;62154;54.914;73.444;2022-12-18T12:09:59;71.78;;;28.55;;
73823;SDS011;62154;54.914;73.444;2022-12-18T12:12:53;57.58;;;23.02;;
73823;SDS011;62154;54.914;73.444;2022-12-18T12:16:17;51.45;;;21.30;;
73823;SDS011;62154;54.914;73.444;2022-12-18T12:19:40;47.70;;;20.17;;
73823;SDS011;62154;54.914;73.444;2022-12-18T12:22:24;47.00;;;19.77;;
73823;SDS011;62154;54.914;73.444;2022-12-18T12:39:01;65.75;;;24.02;;
73823;SDS011;62154;54.914;73.444;2022-12-18T12:41:35;47.50;;;17.65;;
73823;SDS011;62154;54.914;73.444;2022-12-18T12:44:29;54.13;;;19.80;;
73823;SDS011;62154;54.914;73.444;2022-12-18T12:47:09;106.63;;;31.77;;
73823;SDS011;62154;54.914;73.444;2022-12-18T12:49:49;171.98;;;39.85;;
73823;SDS011;62154;54.914;73.444;2022-12-18T12:55:07;243.98;;;56.72;;
73823;SDS011;62154;54.914;73.444;2022-12-18T13:00:36;428.90;;;97.60;;
73823;SDS011;62154;54.914;73.444;2022-12-18T13:09:02;159.73;;;47.63;;
73823;SDS011;62154;54.914;73.444;2022-12-18T13:11:44;148.45;;;44.92;;
73823;SDS011;62154;54.914;73.444;2022-12-18T13:14:34;218.13;;;60.40;;
73823;SDS011;62154;54.914;73.444;2022-12-18T13:17:16;128.73;;;40.05;;
73823;SDS011;62154;54.914;73.444;2022-12-18T13:19:50;66.10;;;24.17;;
73823;SDS011;62154;54.914;73.444;2022-12-18T13:28:03;62.50;;;22.02;;
73823;SDS011;62154;54.914;73.444;2022-12-18T13:30:55;38.70;;;14.70;;
73823;SDS011;62154;54.914;73.444;2022-12-18T13:41:49;87.55;;;33.22;;
73823;SDS011;62154;54.914;73.444;2022-12-18T13:47:04;81.70;;;30.00;;
73823;SDS011;62154;54.914;73.444;2022-12-18T13:49:51;59.28;;;22.80;;
73823;SDS011;62154;54.914;73.444;2022-12-18T13:52:22;92.47;;;32.60;;
73823;SDS011;62154;54.914;73.444;2022-12-18T13:54:58;97.68;;;35.35;;
73823;SDS011;62154;54.914;73.444;2022-12-18T13:57:37;75.13;;;29.08;;
73823;SDS011;62154;54.914;73.444;2022-12-18T14:02:55;70.53;;;27.50;;
73823;SDS011;62154;54.914;73.444;2022-12-18T14:05:33;76.05;;;28.27;;
73823;SDS011;62154;54.914;73.444;2022-12-18T14:08:08;56.83;;;19.77;;
73823;SDS011;62154;54.914;73.444;2022-12-18T14:10:40;51.25;;;16.25;;
73823;SDS011;62154;54.914;73.444;2022-12-18T14:13:19;79.70;;;31.45;;
73823;SDS011;62154;54.914;73.444;2022-12-18T14:15:57;51.95;;;19.05;;
73823;SDS011;62154;54.914;73.444;2022-12-18T14:18:31;65.28;;;23.02;;
73823;SDS011;62154;54.914;73.444;2022-12-18T14:21:23;45.65;;;16.60;;
73823;SDS011;62154;54.914;73.444;2022-12-18T14:24:12;40.40;;;14.43;;
73823;SDS011;62154;54.914;73.444;2022-12-18T14:26:43;95.30;;;34.80;;
73823;SDS011;62154;54.914;73.444;2022-12-18T14:29:21;67.97;;;24.73;;
73823;SDS011;62154;54.914;73.444;2022-12-18T14:34:48;35.10;;;14.43;;
73823;SDS011;62154;54.914;73.444;2022-12-18T14:37:22;49.05;;;17.48;;
73823;SDS011;62154;54.914;73.444;2022-12-18T14:42:31;91.95;;;34.35;;
73823;SDS011;62154;54.914;73.444;2022-12-18T14:48:06;62.78;;;22.10;;
73823;SDS011;62154;54.914;73.444;2022-12-18T14:50:57;64.00;;;24.23;;
73823;SDS011;62154;54.914;73.444;2022-12-18T14:56:22;69.88;;;24.40;;
73823;SDS011;62154;54.914;73.444;2022-12-18T14:59:04;35.45;;;13.73;;
73823;SDS011;62154;54.914;73.444;2022-12-18T15:02:01;42.00;;;15.27;;
73823;SDS011;62154;54.914;73.444;2022-12-18T15:04:41;64.38;;;22.52;;
73823;SDS011;62154;54.914;73.444;2022-12-18T15:07:13;88.72;;;29.98;;
73823;SDS011;62154;54.914;73.444;2022-12-18T15:12:34;120.03;;;35.50;;
73823;SDS011;62154;54.914;73.444;2022-12-18T15:20:56;49.20;;;21.45;;
73823;SDS011;62154;54.914;73.444;2022-12-18T15:23:34;88.25;;;27.20;;
73823;SDS011;62154;54.914;73.444;2022-12-18T15:26:12;72.78;;;22.38;;
73823;SDS011;62154;54.914;73.444;2022-12-18T15:28:51;41.88;;;18.25;;
73823;SDS011;62154;54.914;73.444;2022-12-18T15:31:31;58.55;;;21.23;;
73823;SDS011;62154;54.914;73.444;2022-12-18T15:34:13;57.45;;;19.80;;
73823;SDS011;62154;54.914;73.444;2022-12-18T15:36:47;60.22;;;24.33;;
73823;SDS011;62154;54.914;73.444;2022-12-18T15:39:17;46.13;;;16.52;;
73823;SDS011;62154;54.914;73.444;2022-12-18T15:41:54;56.38;;;19.67;;
73823;SDS011;62154;54.914;73.444;2022-12-18T15:44:40;41.90;;;14.05;;
73823;SDS011;62154;54.914;73.444;2022-12-18T15:47:10;46.22;;;18.13;;
73823;SDS011;62154;54.914;73.444;2022-12-18T15:49:39;40.58;;;15.38;;
73823;SDS011;62154;54.914;73.444;2022-12-18T15:52:17;55.15;;;18.73;;
73823;SDS011;62154;54.914;73.444;2022-12-18T15:54:54;49.38;;;16.20;;
73823;SDS011;62154;54.914;73.444;2022-12-18T15:57:40;34.45;;;12.52;;
73823;SDS011;62154;54.914;73.444;2022-12-18T16:00:11;37.28;;;14.27;;
73823;SDS011;62154;54.914;73.444;2022-12-18T16:02:38;37.30;;;15.82;;
73823;SDS011;62154;54.914;73.444;2022-12-18T16:05:10;41.38;;;14.13;;
73823;SDS011;62154;54.914;73.444;2022-12-18T16:07:42;31.77;;;12.27;;
73823;SDS011;62154;54.914;73.444;2022-12-18T16:10:10;97.97;;;29.80;;
73823;SDS011;62154;54.914;73.444;2022-12-18T16:12:37;36.50;;;12.75;;
73823;SDS011;62154;54.914;73.444;2022-12-18T16:15:05;33.47;;;13.25;;
73823;SDS011;62154;54.914;73.444;2022-12-18T16:17:33;34.47;;;12.98;;
73823;SDS011;62154;54.914;73.444;2022-12-18T16:20:00;39.35;;;13.85;;
73823;SDS011;62154;54.914;73.444;2022-12-18T16:22:33;39.85;;;13.57;;
73823;SDS011;62154;54.914;73.444;2022-12-18T16:25:04;33.15;;;12.40;;
73823;SDS011;62154;54.914;73.444;2022-12-18T16:27:31;34.20;;;11.57;;
73823;SDS011;62154;54.914;73.444;2022-12-18T16:30:13;33.55;;;12.00;;
73823;SDS011;62154;54.914;73.444;2022-12-18T16:32:52;43.10;;;11.77;;
73823;SDS011;62154;54.914;73.444;2022-12-18T16:35:32;31.30;;;11.77;;
73823;SDS011;62154;54.914;73.444;2022-12-18T16:38:00;31.70;;;11.68;;
73823;SDS011;62154;54.914;73.444;2022-12-18T16:40:27;34.83;;;12.80;;
73823;SDS011;62154;54.914;73.444;2022-12-18T16:43:04;30.60;;;11.30;;
73823;SDS011;62154;54.914;73.444;2022-12-18T16:45:38;34.25;;;12.98;;
73823;SDS011;62154;54.914;73.444;2022-12-18T16:48:05;46.53;;;15.52;;
73823;SDS011;62154;54.914;73.444;2022-12-18T16:50:33;38.28;;;13.85;;
73823;SDS011;62154;54.914;73.444;2022-12-18T16:53:00;43.72;;;13.93;;
73823;SDS011;62154;54.914;73.444;2022-12-18T16:55:38;34.60;;;12.40;;
73823;SDS011;62154;54.914;73.444;2022-12-18T16:58:06;50.38;;;17.23;;
73823;SDS011;62154;54.914;73.444;2022-12-18T17:00:44;37.17;;;12.73;;